createdAt,value
2023-01-06T00:03:59.335Z,14.70
2023-01-06T00:17:59.361Z,15.40
2023-01-06T00:31:59.356Z,16.50
2023-01-06T00:45:59.387Z,16.00
2023-01-06T00:59:59.355Z,15.60
2023-01-06T01:14:59.454Z,14.20
2023-01-06T01:28:59.526Z,15.20
2023-01-06T01:42:59.599Z,15.30
2023-01-06T01:56:59.713Z,14.90
2023-01-06T02:10:59.663Z,14.70
2023-01-06T02:24:59.686Z,15.00
2023-01-06T02:38:59.716Z,14.90
2023-01-06T02:52:59.788Z,14.40
2023-01-06T03:06:59.890Z,13.05
2023-01-06T03:20:59.755Z,13.50
2023-01-06T03:34:59.869Z,14.50
2023-01-06T03:48:59.957Z,13.30
2023-01-06T04:03:00.236Z,12.70
2023-01-06T04:17:00.092Z,12.10
2023-01-06T04:31:00.180Z,11.90
2023-01-06T04:45:00.743Z,11.80
2023-01-06T04:59:00.726Z,11.50
2023-01-06T05:13:01.197Z,11.00
2023-01-06T05:27:01.389Z,11.00
2023-01-06T05:41:01.356Z,10.30
2023-01-06T05:55:01.418Z,10.75
2023-01-06T06:09:01.405Z,11.15
2023-01-06T06:23:01.453Z,10.30
2023-01-06T06:37:01.457Z,11.00
2023-01-06T06:52:01.407Z,9.40
2023-01-06T07:07:01.640Z,9.90
2023-01-06T07:22:01.643Z,9.90
2023-01-06T07:37:01.713Z,9.60
2023-01-06T07:52:01.703Z,9.40
2023-01-06T08:07:01.779Z,10.30
2023-01-06T08:22:01.906Z,10.60
2023-01-06T08:37:01.937Z,9.60
2023-01-06T08:52:01.939Z,9.60
2023-01-06T09:07:01.910Z,10.40
2023-01-06T09:22:01.983Z,10.60
2023-01-06T09:37:01.979Z,9.80
2023-01-06T09:52:02.015Z,10.35
2023-01-06T10:07:02.045Z,10.85
2023-01-06T10:22:17.508Z,10.80
2023-01-06T10:37:17.711Z,11.00
2023-01-06T10:52:17.674Z,11.10
2023-01-06T11:07:17.710Z,11.60
2023-01-06T11:22:18.797Z,12.40
2023-01-06T11:37:17.833Z,10.90
2023-01-06T11:52:17.796Z,10.70
2023-01-06T12:07:17.845Z,9.50
2023-01-06T12:22:17.961Z,10.20
2023-01-06T12:37:18.138Z,10.75
2023-01-06T12:52:18.202Z,10.00
2023-01-06T13:07:18.396Z,10.30
2023-01-06T13:22:18.456Z,9.70
2023-01-06T13:37:18.547Z,8.70
2023-01-06T13:52:18.494Z,9.60
2023-01-06T14:07:18.497Z,8.90
2023-01-06T14:22:18.504Z,9.00
2023-01-06T14:37:18.502Z,9.60
2023-01-06T14:52:18.526Z,9.10
2023-01-06T15:07:18.605Z,8.80
2023-01-06T15:22:18.592Z,9.90
2023-01-06T15:37:18.597Z,10.10
2023-01-06T15:52:18.573Z,10.50
2023-01-06T16:07:18.609Z,9.50
2023-01-06T16:22:18.598Z,10.40
2023-01-06T16:36:18.650Z,11.30
2023-01-06T16:50:18.717Z,12.20
2023-01-06T17:04:18.890Z,12.00
2023-01-06T17:18:18.931Z,13.50
2023-01-06T17:32:18.927Z,14.00
2023-01-06T17:46:19.153Z,14.50
2023-01-06T18:00:19.156Z,15.10
2023-01-06T18:14:19.283Z,15.80
2023-01-06T18:28:19.302Z,15.40
2023-01-06T18:42:19.311Z,14.90
2023-01-06T18:56:19.284Z,16.30
2023-01-06T19:10:19.285Z,16.20
2023-01-06T19:24:19.280Z,16.30
2023-01-06T19:38:19.339Z,16.60
2023-01-06T19:52:19.300Z,16.00
2023-01-06T20:06:19.417Z,15.30
2023-01-06T20:20:19.437Z,15.90
2023-01-06T20:34:19.439Z,16.00
2023-01-06T20:48:19.464Z,15.40
2023-01-06T21:02:19.553Z,17.60
2023-01-06T21:16:19.534Z,19.20
2023-01-06T21:30:19.488Z,20.70
2023-01-06T21:44:19.544Z,25.40
2023-01-06T21:58:19.480Z,24.90
2023-01-06T22:12:19.496Z,26.10
2023-01-06T22:26:19.503Z,27.00
2023-01-06T22:40:19.534Z,30.10
2023-01-06T22:54:19.624Z,29.30
2023-01-06T23:08:19.631Z,29.45
2023-01-06T23:22:19.646Z,30.00
2023-01-06T23:36:19.660Z,29.10
2023-01-06T23:50:19.659Z,29.50
